AirNav   Pilot Hours Calculator
 
 952 users online  

LL07 Herb Tautz Airport
Mount Carroll, Illinois, USA

GOING TO MOUNT CARROLL?


FAA INFORMATION EFFECTIVE 01 DECEMBER 2022

Location

FAA Identifier: LL07
Lat/Long: 42-03-50.0870N 089-58-10.4450W
42-03.834783N 089-58.174083W
42.0639131,-89.9695681
(estimated)
Elevation: 853 ft. / 260.0 m (surveyed)
Variation: 01E (1985)
From city: 2 miles S of MOUNT CARROLL, IL
Time zone: UTC -6 (UTC -5 during Daylight Saving Time)
Zip code: 61053

Airport Operations

Airport use: Private use. Permission required prior to landing
Activation date: 07/1969
Control tower: no
ARTCC: CHICAGO CENTER
FSS: KANKAKEE FLIGHT SERVICE STATION
Attendance: UNATNDD
Wind indicator: yes
Segmented circle: no

Airport Communications

WX AWOS-3PT at SFY (6 nm W): 118.650 (815-273-4429)

Nearby radio navigation aids

VOR radial/distance  VOR name  Freq  Var
PLLr284/20.7POLO VOR/DME111.2003E
CVAr043/31.3DAVENPORT VORTAC113.8004E
DBQr118/38.6DUBUQUE VORTAC115.8004E

Airport Services

Airframe service: NONE
Powerplant service: NONE

Runway Information

Runway E/W

Dimensions: 2400 x 80 ft. / 732 x 24 m
Surface: turf
RUNWAY E  RUNWAY W
Traffic pattern: leftleft
Obstructions: nonebldg

Airport Ownership and Management from official FAA records

Ownership: Privately-owned
Owner: HERBERT TAUTZ
20832 HWY 52 - PO BOX 228
MOUNT CARROLL, IL 61053-0228
Phone 815-535-3754
Manager: HERBERT TAUTZ
20832 HWY 52 - PO BOX 228
MOUNT CARROLL, IL 61053-0228
Phone 815-535-3754

Airport Operational Statistics

Aircraft based on the field: 2
Single engine airplanes: 2
    

Additional Remarks

FOR CD CTC CHICAGO ARTCC AT 630-906-8921.

Instrument Procedures

There are no published instrument procedures at LL07.

Some nearby airports with instrument procedures:

KSFY - Tri-Township Airport (6 nm W)
KFEP - Albertus Airport (20 nm NE)
KCWI - Clinton Municipal Airport (21 nm SW)
KSQI - Whiteside County Airport/Jos H Bittorf Field (23 nm SE)
C73 - Dixon Municipal Airport-Charles R. Walgreen Field (27 nm SE)
 
Loc | Ops | Rwys | IFR | FBO | Links
Com | Nav | Svcs | Stats | Notes
Area around LL07 (Herb Tautz Airport)
 
Road maps at: MapQuest Bing Google
 
Aerial photo
No photo
 
Sectional chart

 
Airport distance calculator
Flying to Herb Tautz Airport? Find the distance to fly.

From to LL07

Sunrise and sunset
Times for 04-Dec-2022
 Local
(UTC-6)
 Zulu
(UTC)
Morning civil twilight06:4112:41
Sunrise07:1313:13
Sunset16:2822:28
Evening civil twilight16:5922:59

Current date and time
Zulu (UTC)  05-Dec-2022 01:17:52
Local (UTC-6)  04-Dec-2022 19:17:52
 
METAR
TAF
KDBQ 
38nm NW 
041730Z 0418/0518 23010KT P6SM SCT250= TAF KMLI 041730Z 0418/0518 24011KT P6SM SCT250 FM050100 20007KT P6SM BKN150
KRFD 
40nm E 
042055Z 0421/0518 22009KT P6SM FEW250 FM050200 21008KT P6SM SCT250 WS010/24035KT FM051200 20011G17KT P6SM BKN100
KMLI 
44nm SW 
041730Z 0418/0518 24011KT P6SM SCT250 FM050100 20007KT P6SM BKN150
NOTAMs
Click for the latest NOTAMs
NOTAMs are issued by the DoD/FAA and will open in a separate window not controlled by AirNav.

 

 
 

Would you like to see your business listed on this page?

 If your business provides an interesting product or service to pilots, flight crews, aircraft, or users of the Herb Tautz Airport, you should consider listing it here.  To start the listing process, click on the button below
 
Add a business
 

Other Pages about Herb Tautz Airport

Update a link
 
Copyright © AirNav, LLC. All rights reserved. Privacy Policy  Contact